createdAt,value
2018-11-11T00:20:32.755Z,11.77
2018-11-11T00:21:59.628Z,11.68
2018-11-11T06:54:19.512Z,7.53
2018-11-11T06:54:53.548Z,7.62
2018-11-11T06:55:26.790Z,7.12
2018-11-11T06:56:00.001Z,7.97
2018-11-11T06:56:33.119Z,7.50
2018-11-11T06:57:07.198Z,8.52
2018-11-11T06:57:40.507Z,7.35
2018-11-11T06:58:13.954Z,7.28
2018-11-11T06:58:47.873Z,7.57
2018-11-11T06:59:21.180Z,6.95
2018-11-11T06:59:55.153Z,6.97
2018-11-11T07:00:28.317Z,7.12
2018-11-11T07:01:01.740Z,7.30
2018-11-11T07:01:35.038Z,7.12
2018-11-11T07:02:08.150Z,8.02
2018-11-11T07:02:41.325Z,7.65
2018-11-11T07:04:25.020Z,7.50
2018-11-11T07:04:58.107Z,7.65
2018-11-11T07:05:31.230Z,7.30
2018-11-11T07:06:04.350Z,7.57
2018-11-11T07:06:37.491Z,7.97
2018-11-11T07:07:10.656Z,7.80
2018-11-11T07:07:43.890Z,8.63
2018-11-11T07:08:17.193Z,8.35
2018-11-11T07:08:51.218Z,7.65
2018-11-11T07:09:24.421Z,8.57
2018-11-11T07:09:58.896Z,8.07
2018-11-11T07:10:34.224Z,8.57
2018-11-11T07:11:07.550Z,10.02
2018-11-11T07:11:41.808Z,9.45
2018-11-11T07:12:15.218Z,8.60
2018-11-11T07:12:48.489Z,8.43
2018-11-11T07:13:40.656Z,9.80
2018-11-11T07:14:14.417Z,8.20
2018-11-11T07:14:48.849Z,8.45
2018-11-11T07:15:24.091Z,8.65
2018-11-11T07:16:00.026Z,8.48
2018-11-11T07:16:36.134Z,8.80
2018-11-11T07:17:10.312Z,9.18
2018-11-11T07:17:44.812Z,9.20
2018-11-11T07:18:19.087Z,8.38
2018-11-11T07:18:54.272Z,8.15
2018-11-11T07:19:28.555Z,9.40
2018-11-11T07:20:04.718Z,8.35
2018-11-11T07:20:38.831Z,9.15
2018-11-11T07:21:19.689Z,8.43
2018-11-11T07:21:52.863Z,8.50
2018-11-11T07:22:28.097Z,8.00
2018-11-11T07:36:16.430Z,6.10
2018-11-11T07:37:29.664Z,6.53
2018-11-11T07:38:04.730Z,6.45
2018-11-11T07:39:23.380Z,6.45
2018-11-11T07:39:58.133Z,6.15
